createdAt,value
2022-09-01T00:00:33.122Z,81.79
2022-09-01T00:03:18.664Z,81.86
2022-09-01T00:06:01.688Z,81.79
2022-09-01T00:08:44.800Z,81.40
2022-09-01T00:11:30.164Z,81.32
2022-09-01T00:14:30.646Z,81.19
2022-09-01T00:17:14.096Z,80.86
2022-09-01T00:19:58.459Z,80.94
2022-09-01T00:22:41.541Z,80.79
2022-09-01T00:25:25.096Z,80.92
2022-09-01T00:28:08.077Z,80.89
2022-09-01T00:30:51.152Z,80.70
2022-09-01T00:33:34.795Z,80.34
2022-09-01T00:36:20.284Z,80.41
2022-09-01T00:39:03.986Z,80.38
2022-09-01T00:41:47.896Z,80.45
2022-09-01T00:44:31.915Z,80.38
2022-09-01T00:47:15.635Z,80.58
2022-09-01T00:50:00.575Z,80.09
2022-09-01T00:52:49.120Z,79.88
2022-09-01T00:55:34.416Z,79.91
2022-09-01T00:58:19.679Z,79.76
2022-09-01T01:01:05.016Z,79.66
2022-09-01T01:03:48.183Z,79.93
2022-09-01T01:06:33.202Z,79.73
2022-09-01T01:09:18.842Z,79.67
2022-09-01T01:12:04.917Z,79.58
2022-09-01T01:14:50.429Z,79.89
2022-09-01T01:17:35.817Z,79.77
2022-09-01T01:20:40.403Z,79.77
2022-09-01T01:23:32.136Z,79.63
2022-09-01T01:26:16.679Z,79.44
2022-09-01T01:29:03.013Z,79.73
2022-09-01T01:31:53.534Z,79.97
2022-09-01T01:34:36.799Z,80.09
2022-09-01T01:37:20.302Z,80.07
2022-09-01T01:40:04.346Z,80.17
2022-09-01T01:42:51.349Z,80.20
2022-09-01T01:45:35.156Z,80.05
2022-09-01T01:48:24.532Z,79.96
2022-09-01T01:51:09.281Z,80.02
2022-09-01T01:53:52.967Z,80.38
2022-09-01T01:56:39.770Z,80.32
2022-09-01T01:59:24.754Z,80.56
2022-09-01T02:02:08.765Z,80.82
2022-09-01T02:04:51.913Z,80.87
2022-09-01T02:07:35.083Z,80.83
2022-09-01T02:10:18.314Z,80.65
2022-09-01T02:13:04.712Z,80.52
2022-09-01T02:15:53.888Z,80.58
2022-09-01T02:18:41.649Z,80.91
2022-09-01T02:21:27.192Z,80.73
2022-09-01T02:24:11.146Z,80.92
2022-09-01T02:26:54.869Z,81.13
2022-09-01T02:29:40.232Z,81.16
2022-09-01T02:32:28.197Z,81.20
2022-09-01T02:35:13.467Z,81.43
2022-09-01T02:38:00.985Z,81.65
2022-09-01T02:40:46.984Z,81.61
2022-09-01T02:43:32.049Z,81.75
2022-09-01T02:46:15.815Z,81.45
2022-09-01T02:49:00.663Z,81.81
2022-09-01T02:51:45.341Z,81.92
2022-09-01T02:54:30.989Z,82.08
2022-09-01T02:57:14.633Z,82.04
2022-09-01T02:59:59.085Z,82.00
2022-09-01T03:02:42.892Z,82.07
2022-09-01T03:05:31.632Z,82.05
2022-09-01T03:08:15.996Z,82.17
2022-09-01T03:11:01.512Z,82.38
2022-09-01T03:13:44.920Z,82.39
2022-09-01T03:16:30.368Z,82.55
2022-09-01T03:19:15.147Z,82.70
2022-09-01T03:22:00.303Z,82.55
2022-09-01T03:24:47.195Z,82.64
2022-09-01T03:27:30.290Z,82.56
2022-09-01T03:30:14.571Z,82.59
2022-09-01T03:32:57.782Z,82.77
2022-09-01T03:35:40.826Z,82.79
2022-09-01T03:38:26.940Z,82.79
2022-09-01T03:41:10.343Z,82.97
2022-09-01T03:43:55.095Z,82.83
2022-09-01T03:46:40.441Z,82.81
2022-09-01T03:49:28.615Z,82.85
2022-09-01T03:52:13.508Z,82.73
2022-09-01T03:54:59.567Z,82.66
2022-09-01T03:57:42.532Z,82.50
2022-09-01T04:00:29.918Z,82.23
2022-09-01T04:03:14.971Z,82.23
2022-09-01T04:05:57.882Z,82.58
2022-09-01T04:08:40.892Z,82.21
2022-09-01T04:11:25.419Z,82.13
2022-09-01T04:14:11.952Z,82.14
2022-09-01T04:17:13.947Z,82.24
2022-09-01T04:19:57.907Z,82.26
2022-09-01T04:22:41.008Z,82.23
2022-09-01T04:25:27.763Z,82.43
2022-09-01T04:28:17.712Z,82.57
2022-09-01T04:31:05.883Z,82.49
2022-09-01T04:33:53.820Z,82.74
2022-09-01T04:36:38.829Z,82.83
2022-09-01T04:39:22.441Z,82.72
2022-09-01T04:42:09.032Z,82.39
2022-09-01T04:44:54.659Z,82.16
2022-09-01T04:47:41.990Z,82.46
2022-09-01T04:50:30.243Z,82.68
2022-09-01T04:53:31.780Z,82.79
2022-09-01T04:56:19.606Z,82.81
2022-09-01T04:59:14.813Z,82.48
2022-09-01T05:02:02.001Z,82.44
2022-09-01T05:04:46.452Z,82.49
2022-09-01T05:07:30.103Z,82.46
2022-09-01T05:10:15.485Z,82.53
2022-09-01T05:13:23.623Z,82.26
2022-09-01T05:16:12.924Z,82.14
2022-09-01T05:18:58.661Z,82.10
2022-09-01T05:21:49.691Z,81.88
2022-09-01T05:24:38.543Z,82.27
2022-09-01T05:27:26.843Z,82.13
2022-09-01T05:30:10.832Z,82.45
2022-09-01T05:32:55.035Z,83.06
2022-09-01T05:35:45.132Z,83.66
2022-09-01T05:38:29.833Z,82.97
2022-09-01T05:41:16.034Z,83.07
2022-09-01T05:44:00.810Z,82.91
2022-09-01T05:46:46.776Z,82.93
2022-09-01T05:49:33.201Z,83.15
2022-09-01T05:52:26.471Z,83.22
2022-09-01T05:55:10.533Z,83.35
2022-09-01T05:57:57.274Z,83.20
2022-09-01T06:00:42.706Z,83.11
2022-09-01T06:03:27.087Z,83.15
2022-09-01T06:06:12.256Z,83.16
2022-09-01T06:08:59.571Z,83.23
2022-09-01T06:11:43.402Z,82.51
2022-09-01T06:14:28.608Z,82.42
2022-09-01T06:17:16.255Z,82.42
2022-09-01T06:19:59.478Z,82.28
2022-09-01T06:22:43.945Z,82.31
2022-09-01T06:25:30.536Z,82.32
2022-09-01T06:28:14.794Z,81.99
2022-09-01T06:30:58.590Z,81.93
2022-09-01T06:33:42.644Z,81.76
2022-09-01T06:36:26.096Z,81.51
2022-09-01T06:39:14.131Z,81.52
2022-09-01T06:41:58.987Z,81.61
2022-09-01T06:44:49.542Z,81.23
2022-09-01T06:47:32.510Z,80.82
2022-09-01T06:53:39.075Z,80.23
2022-09-01T06:56:26.915Z,80.25
2022-09-01T06:59:16.511Z,80.27
2022-09-01T07:02:04.773Z,80.31
2022-09-01T07:08:25.028Z,80.45
2022-09-01T07:16:30.227Z,79.83
2022-09-01T07:17:42.667Z,79.12
2022-09-01T07:20:29.252Z,79.16
2022-09-01T07:23:13.510Z,78.72
2022-09-01T07:26:04.522Z,77.14
2022-09-01T07:29:04.261Z,76.77
2022-09-01T07:32:43.997Z,77.02
2022-09-01T07:34:55.890Z,77.08
2022-09-01T07:44:06.715Z,76.71
2022-09-01T07:47:20.489Z,76.28
2022-09-01T07:53:22.534Z,76.08
2022-09-01T07:56:09.615Z,76.12
2022-09-01T07:58:58.574Z,75.82
2022-09-01T08:01:42.905Z,75.78
2022-09-01T08:04:27.391Z,75.64
2022-09-01T08:07:15.546Z,75.63
2022-09-01T08:10:01.384Z,75.73
2022-09-01T08:12:46.540Z,75.10
2022-09-01T08:18:48.112Z,74.32
2022-09-01T08:21:42.131Z,74.49
2022-09-01T08:24:51.550Z,74.45
2022-09-01T08:27:36.239Z,74.21
2022-09-01T08:30:19.635Z,69.95
2022-09-01T08:33:11.202Z,71.01
2022-09-01T08:35:58.189Z,70.49
2022-09-01T08:38:44.227Z,69.68
2022-09-01T08:41:43.923Z,69.69
2022-09-01T08:44:37.056Z,69.39
2022-09-01T08:47:35.469Z,68.60
2022-09-01T08:50:24.667Z,69.43
2022-09-01T08:53:32.721Z,68.23
2022-09-01T08:56:20.095Z,68.62
2022-09-01T08:59:04.259Z,68.44
2022-09-01T09:02:21.714Z,67.87
2022-09-01T09:05:17.303Z,68.12
2022-09-01T09:08:13.624Z,66.57
2022-09-01T09:11:00.251Z,67.01
2022-09-01T09:13:56.843Z,66.86
2022-09-01T09:16:43.152Z,66.48
2022-09-01T09:19:29.635Z,66.94
2022-09-01T09:22:15.392Z,67.20
2022-09-01T09:25:04.484Z,66.55
2022-09-01T09:27:49.879Z,67.00
2022-09-01T09:30:34.500Z,66.61
2022-09-01T09:33:51.782Z,65.78
2022-09-01T09:36:37.479Z,66.06
2022-09-01T09:39:20.828Z,66.34
2022-09-01T09:42:09.618Z,66.08
2022-09-01T09:44:53.390Z,66.11
2022-09-01T09:47:43.946Z,65.59
2022-09-01T09:50:30.564Z,64.17
2022-09-01T09:53:17.226Z,63.53
2022-09-01T09:56:03.697Z,63.00
2022-09-01T09:58:49.002Z,64.49
2022-09-01T10:01:32.489Z,64.59
2022-09-01T10:04:33.562Z,62.59
2022-09-01T10:07:30.737Z,62.66
2022-09-01T10:10:30.240Z,58.06
2022-09-01T10:13:15.096Z,59.78
2022-09-01T10:16:00.917Z,58.50
2022-09-01T10:18:48.828Z,59.06
2022-09-01T10:21:38.233Z,58.80
2022-09-01T10:24:30.903Z,58.80
2022-09-01T10:27:19.957Z,58.13
2022-09-01T10:30:12.425Z,58.00
2022-09-01T10:33:01.511Z,59.00
2022-09-01T10:35:53.040Z,58.85
2022-09-01T10:38:39.180Z,57.63
2022-09-01T10:41:46.940Z,58.55
2022-09-01T10:44:34.355Z,59.31
2022-09-01T10:47:29.554Z,59.15
2022-09-01T10:50:27.182Z,60.19
2022-09-01T10:53:17.001Z,60.04
2022-09-01T10:56:18.829Z,60.25
2022-09-01T11:02:24.889Z,60.24
2022-09-01T11:05:18.957Z,59.50
2022-09-01T11:08:40.886Z,60.79
2022-09-01T11:11:34.787Z,59.54
2022-09-01T11:14:20.396Z,59.19
2022-09-01T11:17:18.549Z,60.65
2022-09-01T11:20:21.603Z,60.42
2022-09-01T11:23:07.321Z,58.79
2022-09-01T11:28:58.186Z,57.73
2022-09-01T11:31:44.932Z,58.28
2022-09-01T11:34:28.556Z,58.12
2022-09-01T11:37:16.615Z,55.24
2022-09-01T11:40:02.470Z,54.99
2022-09-01T11:42:47.076Z,55.55
2022-09-01T11:45:34.705Z,54.15
2022-09-01T11:48:18.616Z,54.90
2022-09-01T11:51:03.937Z,54.40
2022-09-01T11:53:48.020Z,52.98
2022-09-01T11:56:31.201Z,51.13
2022-09-01T11:59:14.230Z,52.30
2022-09-01T12:02:00.180Z,51.31
2022-09-01T12:04:44.003Z,51.65
2022-09-01T12:07:43.997Z,48.28
2022-09-01T12:10:33.567Z,48.21
2022-09-01T12:13:21.635Z,46.62
2022-09-01T12:16:18.085Z,44.84
2022-09-01T12:19:04.021Z,41.81
2022-09-01T12:21:59.885Z,42.24
2022-09-01T12:24:48.156Z,42.30
2022-09-01T12:27:31.464Z,41.83
2022-09-01T12:30:15.097Z,43.62
2022-09-01T12:36:22.370Z,42.01
2022-09-01T12:39:23.865Z,43.47
2022-09-01T12:42:11.935Z,44.15
2022-09-01T12:44:57.555Z,43.41
2022-09-01T12:47:50.571Z,42.47
2022-09-01T12:50:38.301Z,42.72
2022-09-01T12:53:30.351Z,43.03
2022-09-01T12:56:21.325Z,43.63
2022-09-01T12:59:10.751Z,44.02
2022-09-01T13:01:59.134Z,44.07
2022-09-01T13:04:42.856Z,45.34
2022-09-01T13:07:25.835Z,44.34
2022-09-01T13:10:10.312Z,44.94
2022-09-01T13:12:53.269Z,45.19
2022-09-01T13:15:38.796Z,45.51
2022-09-01T13:18:23.541Z,45.95
2022-09-01T13:21:07.176Z,44.65
2022-09-01T13:23:50.787Z,45.53
2022-09-01T13:26:35.507Z,44.99
2022-09-01T13:29:18.452Z,44.52
2022-09-01T13:32:19.033Z,44.92
2022-09-01T13:35:03.061Z,44.36
2022-09-01T13:37:46.459Z,45.67
2022-09-01T13:40:30.277Z,44.03
2022-09-01T13:43:15.445Z,43.88
2022-09-01T13:45:59.097Z,44.62
2022-09-01T13:51:52.355Z,45.75
2022-09-01T13:54:35.430Z,46.66
2022-09-01T13:57:18.459Z,47.16
2022-09-01T14:00:02.999Z,47.02
2022-09-01T14:02:55.240Z,47.83
2022-09-01T14:05:41.756Z,47.54
2022-09-01T14:08:25.004Z,47.82
2022-09-01T14:11:08.975Z,47.99
2022-09-01T14:13:52.134Z,48.34
2022-09-01T14:16:36.576Z,48.03
2022-09-01T14:19:19.620Z,48.83
2022-09-01T14:22:06.362Z,48.23
2022-09-01T14:24:49.553Z,47.84
2022-09-01T14:27:32.690Z,48.42
2022-09-01T14:30:19.318Z,49.16
2022-09-01T14:33:04.124Z,49.25
2022-09-01T14:35:50.114Z,48.97
2022-09-01T14:38:34.601Z,49.91
2022-09-01T14:41:21.928Z,49.34
2022-09-01T14:44:04.891Z,49.65
2022-09-01T14:46:49.186Z,49.41
2022-09-01T14:49:36.768Z,49.96
2022-09-01T14:52:20.623Z,49.21
2022-09-01T14:55:03.918Z,49.19
2022-09-01T14:57:47.280Z,49.57
2022-09-01T15:00:31.707Z,49.60
2022-09-01T15:03:18.169Z,48.94
2022-09-01T15:06:05.392Z,49.34
2022-09-01T15:08:48.399Z,50.27
2022-09-01T15:11:32.153Z,49.46
2022-09-01T15:14:18.873Z,49.06
2022-09-01T15:17:02.008Z,49.82
2022-09-01T15:19:45.208Z,49.89
2022-09-01T15:22:29.820Z,49.55
2022-09-01T15:25:12.820Z,48.68
2022-09-01T15:27:55.919Z,48.93
2022-09-01T15:30:39.907Z,49.08
2022-09-01T15:33:22.839Z,48.61
2022-09-01T15:36:06.179Z,48.74
2022-09-01T15:38:51.012Z,47.63
2022-09-01T15:41:34.619Z,47.94
2022-09-01T15:44:17.676Z,48.93
2022-09-01T15:47:00.824Z,48.48
2022-09-01T15:49:43.790Z,48.77
2022-09-01T15:52:27.727Z,49.42
2022-09-01T15:55:12.115Z,49.17
2022-09-01T15:57:55.334Z,49.00
2022-09-01T16:00:38.603Z,49.27
2022-09-01T16:03:24.333Z,49.64
2022-09-01T16:06:08.890Z,50.09
2022-09-01T16:08:54.355Z,50.22
2022-09-01T16:11:40.357Z,49.87
2022-09-01T16:14:23.587Z,49.63
2022-09-01T16:17:13.381Z,49.29
2022-09-01T16:20:03.621Z,50.27
2022-09-01T16:22:52.866Z,50.01
2022-09-01T16:25:35.929Z,50.37
2022-09-01T16:28:28.089Z,50.65
2022-09-01T16:31:13.948Z,51.43
2022-09-01T16:34:01.964Z,51.57
2022-09-01T16:36:52.011Z,51.63
2022-09-01T16:39:42.874Z,51.23
2022-09-01T16:42:31.940Z,52.05
2022-09-01T16:45:30.675Z,52.63
2022-09-01T16:48:20.397Z,52.01
2022-09-01T16:51:14.506Z,52.65
2022-09-01T16:54:09.083Z,52.98
2022-09-01T16:57:00.663Z,53.11
2022-09-01T16:59:55.552Z,52.20
2022-09-01T17:02:51.031Z,51.99
2022-09-01T17:05:38.973Z,52.37
2022-09-01T17:08:25.384Z,52.51
2022-09-01T17:11:10.728Z,53.34
2022-09-01T17:13:55.967Z,53.60
2022-09-01T17:16:42.563Z,53.96
2022-09-01T17:19:28.197Z,53.86
2022-09-01T17:22:13.401Z,53.47
2022-09-01T17:25:04.699Z,53.64
2022-09-01T17:27:54.565Z,53.63
2022-09-01T17:30:45.486Z,53.40
2022-09-01T17:33:38.232Z,53.96
2022-09-01T17:36:33.257Z,53.82
2022-09-01T17:39:20.716Z,53.75
2022-09-01T17:42:11.122Z,53.19
2022-09-01T17:44:56.476Z,53.63
2022-09-01T17:47:50.560Z,53.93
2022-09-01T17:53:46.584Z,53.41
2022-09-01T17:56:39.284Z,53.30
2022-09-01T17:59:29.396Z,52.64
2022-09-01T18:02:26.711Z,52.26
2022-09-01T18:05:12.620Z,52.56
2022-09-01T18:08:05.125Z,52.82
2022-09-01T18:10:55.849Z,52.61
2022-09-01T18:13:59.509Z,53.08
2022-09-01T18:16:52.881Z,52.49
2022-09-01T18:19:39.093Z,52.73
2022-09-01T18:22:25.806Z,53.17
2022-09-01T18:25:14.403Z,52.78
2022-09-01T18:27:58.790Z,53.32
2022-09-01T18:30:53.329Z,53.02
2022-09-01T18:33:45.896Z,53.09
2022-09-01T18:36:40.403Z,53.55
2022-09-01T18:39:33.350Z,53.63
2022-09-01T18:42:23.264Z,54.18
2022-09-01T18:45:15.522Z,54.09
2022-09-01T18:48:09.278Z,54.05
2022-09-01T18:50:56.488Z,54.50
2022-09-01T18:53:48.106Z,54.30
2022-09-01T18:56:45.414Z,53.84
2022-09-01T18:59:50.510Z,54.26
2022-09-01T19:02:52.776Z,54.27
2022-09-01T19:05:51.698Z,54.49
2022-09-01T19:08:47.170Z,54.90
2022-09-01T19:11:40.429Z,54.54
2022-09-01T19:14:34.277Z,54.60
2022-09-01T19:17:45.624Z,54.47
2022-09-01T19:20:36.464Z,54.25
2022-09-01T19:23:26.653Z,54.13
2022-09-01T19:26:15.635Z,54.10
2022-09-01T19:29:05.968Z,54.25
2022-09-01T19:31:51.670Z,53.97
2022-09-01T19:34:41.039Z,54.01
2022-09-01T19:37:24.079Z,53.96
2022-09-01T19:40:08.727Z,53.90
2022-09-01T19:42:55.952Z,53.95
2022-09-01T19:45:47.227Z,54.20
2022-09-01T19:48:36.108Z,54.46
2022-09-01T19:51:25.778Z,54.64
2022-09-01T19:54:16.115Z,54.90
2022-09-01T19:57:09.190Z,55.40
2022-09-01T19:59:59.335Z,55.10
2022-09-01T20:02:50.145Z,55.15
2022-09-01T20:05:36.700Z,55.02
2022-09-01T20:08:28.536Z,55.96
2022-09-01T20:11:19.794Z,55.45
2022-09-01T20:14:17.788Z,55.34
2022-09-01T20:17:03.451Z,55.12
2022-09-01T20:19:52.139Z,54.46
2022-09-01T20:22:44.932Z,54.21
2022-09-01T20:25:37.983Z,53.48
2022-09-01T20:28:30.332Z,53.67
2022-09-01T20:31:25.087Z,53.74
2022-09-01T20:34:15.170Z,54.08
2022-09-01T20:37:04.345Z,53.75
2022-09-01T20:40:04.897Z,53.86
2022-09-01T20:42:55.423Z,53.81
2022-09-01T20:45:39.996Z,53.83
2022-09-01T20:48:26.195Z,54.08
2022-09-01T20:51:15.297Z,54.62
2022-09-01T20:54:19.681Z,54.56
2022-09-01T20:57:18.690Z,54.65
2022-09-01T21:00:07.881Z,54.80
2022-09-01T21:03:00.946Z,54.98
2022-09-01T21:05:50.585Z,54.84
2022-09-01T21:08:44.453Z,55.40
2022-09-01T21:11:39.159Z,55.37
2022-09-01T21:14:36.216Z,55.57
2022-09-01T21:17:28.179Z,56.19
2022-09-01T21:20:17.559Z,56.23
2022-09-01T21:23:02.018Z,56.29
2022-09-01T21:25:50.730Z,56.44
2022-09-01T21:28:34.692Z,56.50
2022-09-01T21:31:19.315Z,56.55
2022-09-01T21:34:03.763Z,56.93
2022-09-01T21:36:46.859Z,56.98
2022-09-01T21:39:29.826Z,56.84
2022-09-01T21:42:14.206Z,56.91
2022-09-01T21:44:58.357Z,56.93
2022-09-01T21:47:42.508Z,56.61
2022-09-01T21:50:27.669Z,57.24
2022-09-01T21:53:11.870Z,57.33
2022-09-01T21:55:54.842Z,57.38
2022-09-01T21:58:38.658Z,57.56
2022-09-01T22:01:21.934Z,58.02
2022-09-01T22:04:05.785Z,58.15
2022-09-01T22:06:50.845Z,58.26
2022-09-01T22:09:33.997Z,58.21
2022-09-01T22:12:17.045Z,58.43
2022-09-01T22:15:00.007Z,58.58
2022-09-01T22:17:43.138Z,58.60
2022-09-01T22:20:28.574Z,58.30
2022-09-01T22:23:14.905Z,58.66
2022-09-01T22:25:57.970Z,58.44
2022-09-01T22:28:40.903Z,58.61
2022-09-01T22:31:25.567Z,58.48
2022-09-01T22:34:08.707Z,58.87
2022-09-01T22:36:51.687Z,58.63
2022-09-01T22:39:36.055Z,58.86
2022-09-01T22:42:19.054Z,58.95
2022-09-01T22:45:02.283Z,58.82
2022-09-01T22:47:45.246Z,58.93
2022-09-01T22:50:28.671Z,59.28
2022-09-01T22:53:13.322Z,59.27
2022-09-01T22:55:57.930Z,59.23
2022-09-01T22:58:41.627Z,59.45
2022-09-01T23:01:27.720Z,59.49
2022-09-01T23:04:13.867Z,59.36
2022-09-01T23:06:57.204Z,59.53
2022-09-01T23:09:40.527Z,59.72
2022-09-01T23:12:25.006Z,59.80
2022-09-01T23:15:09.858Z,59.80
2022-09-01T23:17:52.663Z,60.45
2022-09-01T23:20:35.855Z,59.96
2022-09-01T23:23:18.934Z,59.98
2022-09-01T23:26:02.641Z,60.00
2022-09-01T23:28:48.618Z,59.91
2022-09-01T23:31:34.603Z,59.99
2022-09-01T23:34:17.804Z,60.13
2022-09-01T23:37:00.786Z,60.29
2022-09-01T23:39:43.835Z,60.27
2022-09-01T23:42:26.928Z,60.33
2022-09-01T23:45:12.468Z,60.48
2022-09-01T23:47:55.428Z,60.49
2022-09-01T23:50:43.779Z,60.67
2022-09-01T23:53:28.848Z,60.78
2022-09-01T23:56:14.939Z,61.03
2022-09-01T23:58:58.544Z,60.99
